Time;durP1;ratioP1;P1;durP2;ratioP2;P2;SDS_P1;SDS_P2;PMS_P1;PMS_P2;Temp;Humidity;BMP_temperature;BMP_pressure;BME280_temperature;BME280_humidity;BME280_pressure;Samples;Min_cycle;Max_cycle;Signal;HPM_P1;HPM_P2
2023/01/30 00:01:15;;;;;;;;;30.50;28.50;;;;;;;;5045295;28;13592;-78
2023/01/30 00:03:40;;;;;;;;;34.80;28.80;;;;;;;;5045219;28;13504;-78
2023/01/30 00:06:05;;;;;;;;;35.00;32.00;;;;;;;;5045280;28;13517;-78
2023/01/30 00:08:30;;;;;;;;;35.33;33.00;;;;;;;;5045266;28;13550;-77
2023/01/30 00:10:56;;;;;;;;;34.00;34.00;;;;;;;;5045092;28;13519;-78
2023/01/30 00:13:21;;;;;;;;;40.75;33.50;;;;;;;;5044884;28;13515;-78
2023/01/30 00:15:47;;;;;;;;;35.75;32.00;;;;;;;;5061324;28;13547;-78
2023/01/30 00:18:12;;;;;;;;;28.75;27.50;;;;;;;;5065278;28;13514;-78
2023/01/30 00:20:37;;;;;;;;;36.75;34.25;;;;;;;;5065408;28;13558;-78
2023/01/30 00:23:03;;;;;;;;;30.00;29.00;;;;;;;;5067273;28;13624;-76
2023/01/30 00:25:30;;;;;;;;;33.25;30.25;;;;;;;;5066815;28;13479;-76
2023/01/30 00:27:55;;;;;;;;;35.25;32.75;;;;;;;;5048574;28;13534;-77
2023/01/30 00:30:20;;;;;;;;;34.67;32.00;;;;;;;;5047070;28;14316;-76
2023/01/30 00:32:46;;;;;;;;;33.00;31.00;;;;;;;;5048733;28;13702;-77
2023/01/30 00:35:11;;;;;;;;;26.00;24.00;;;;;;;;5048540;28;13563;-76
2023/01/30 00:37:36;;;;;;;;;34.00;29.00;;;;;;;;5048526;28;13597;-76
2023/01/30 00:40:01;;;;;;;;;37.33;28.67;;;;;;;;5048474;28;14333;-76
2023/01/30 00:47:55;;;;;;;;;31.25;28.00;;;;;;;;5048409;28;13622;-76
2023/01/30 00:50:20;;;;;;;;;33.00;31.00;;;;;;;;5047978;28;13655;-76
2023/01/30 00:52:45;;;;;;;;;28.67;28.67;;;;;;;;5048099;28;13479;-76
2023/01/30 00:55:11;;;;;;;;;30.67;29.33;;;;;;;;5048158;28;14246;-76
2023/01/30 00:57:36;;;;;;;;;28.50;25.00;;;;;;;;5046643;28;13703;-76
2023/01/30 01:00:04;;;;;;;;;31.75;28.00;;;;;;;;5048017;28;14268;-75
2023/01/30 01:02:29;;;;;;;;;33.50;28.00;;;;;;;;5047958;28;13522;-76
2023/01/30 01:04:54;;;;;;;;;28.00;24.00;;;;;;;;5048055;28;13666;-77
2023/01/30 01:07:19;;;;;;;;;32.00;25.00;;;;;;;;5046591;28;13744;-75
2023/01/30 01:09:45;;;;;;;;;30.67;28.00;;;;;;;;5048155;28;13575;-77
2023/01/30 01:12:10;;;;;;;;;33.67;32.00;;;;;;;;5048095;28;13537;-77
2023/01/30 01:14:35;;;;;;;;;36.00;29.33;;;;;;;;5047906;28;13571;-77
2023/01/30 01:17:00;;;;;;;;;33.33;29.00;;;;;;;;5047921;28;13516;-78
2023/01/30 01:19:26;;;;;;;;;32.50;31.00;;;;;;;;5046532;28;13547;-77
2023/01/30 01:21:51;;;;;;;;;36.25;31.75;;;;;;;;5047803;28;13872;-84
2023/01/30 01:24:17;;;;;;;;;30.00;28.25;;;;;;;;5048171;28;13537;-72
2023/01/30 01:26:42;;;;;;;;;34.00;30.25;;;;;;;;5047964;28;13662;-76
2023/01/30 01:29:16;;;;;;;;;31.50;27.75;;;;;;;;5047838;28;13525;-74
2023/01/30 01:31:42;;;;;;;;;30.60;30.60;;;;;;;;5047994;28;13545;-74
2023/01/30 01:34:07;;;;;;;;;32.25;25.75;;;;;;;;5047650;28;13538;-74
2023/01/30 01:36:33;;;;;;;;;27.50;26.50;;;;;;;;5047964;28;13606;-73
2023/01/30 01:38:58;;;;;;;;;31.67;30.67;;;;;;;;5048162;28;13496;-73
2023/01/30 01:41:23;;;;;;;;;36.00;28.50;;;;;;;;5046375;28;14320;-73
2023/01/30 01:44:06;;;;;;;;;31.00;27.00;;;;;;;;5047506;28;13704;-73
2023/01/30 01:46:31;;;;;;;;;35.50;30.75;;;;;;;;5046184;28;14252;-73
2023/01/30 01:48:58;;;;;;;;;34.00;28.00;;;;;;;;5047544;28;13606;-73
2023/01/30 01:51:26;;;;;;;;;34.00;30.25;;;;;;;;5047731;28;13717;-73
2023/01/30 01:54:11;;;;;;;;;29.20;24.20;;;;;;;;5047522;28;13505;-73
2023/01/30 01:56:40;;;;;;;;;32.00;27.50;;;;;;;;5047149;28;13756;-72
2023/01/30 01:59:11;;;;;;;;;32.00;25.50;;;;;;;;5047255;28;13517;-74
2023/01/30 02:01:36;;;;;;;;;26.00;25.25;;;;;;;;5047480;28;13515;-73
2023/01/30 02:04:03;;;;;;;;;33.67;27.00;;;;;;;;5046052;28;14178;-73
2023/01/30 02:06:29;;;;;;;;;30.60;24.00;;;;;;;;5047611;28;13598;-73
2023/01/30 02:08:56;;;;;;;;;31.25;27.50;;;;;;;;5047526;28;14229;-73
2023/01/30 02:11:48;;;;;;;;;29.75;29.25;;;;;;;;5047429;28;13530;-73
2023/01/30 02:14:14;;;;;;;;;30.25;27.25;;;;;;;;5044936;28;13538;-74
2023/01/30 02:16:40;;;;;;;;;29.40;29.40;;;;;;;;5047043;28;14309;-73
2023/01/30 02:19:12;;;;;;;;;30.60;29.00;;;;;;;;5046772;28;13573;-73
2023/01/30 02:22:11;;;;;;;;;29.20;27.00;;;;;;;;5046960;28;13511;-74
2023/01/30 02:24:42;;;;;;;;;28.00;24.50;;;;;;;;5046716;28;13488;-73
2023/01/30 02:27:26;;;;;;;;;23.50;21.00;;;;;;;;5045413;28;13674;-74
2023/01/30 02:30:03;;;;;;;;;29.75;25.50;;;;;;;;5046607;28;13494;-74
2023/01/30 02:32:33;;;;;;;;;34.25;30.50;;;;;;;;5046565;28;13618;-74
2023/01/30 02:35:11;;;;;;;;;30.20;28.00;;;;;;;;5046323;28;13563;-73
2023/01/30 02:37:45;;;;;;;;;31.00;24.00;;;;;;;;5046643;28;13498;-73
2023/01/30 02:40:20;;;;;;;;;38.25;31.75;;;;;;;;5046473;28;13550;-74
2023/01/30 02:42:51;;;;;;;;;34.50;25.75;;;;;;;;5046304;28;14139;-74
2023/01/30 02:45:29;;;;;;;;;28.80;24.80;;;;;;;;5045260;28;13633;-74
2023/01/30 02:48:08;;;;;;;;;29.25;22.75;;;;;;;;5046319;28;14332;-73
2023/01/30 02:50:37;;;;;;;;;26.80;26.20;;;;;;;;5046127;28;13632;-74
2023/01/30 02:53:03;;;;;;;;;29.80;24.40;;;;;;;;5046112;28;13533;-73
2023/01/30 02:55:29;;;;;;;;;30.00;27.00;;;;;;;;5045986;28;14364;-73
2023/01/30 02:57:54;;;;;;;;;26.00;24.00;;;;;;;;5045978;28;13485;-73
2023/01/30 03:00:35;;;;;;;;;27.67;26.33;;;;;;;;5046076;28;13506;-74
2023/01/30 03:03:09;;;;;;;;;24.80;22.20;;;;;;;;5046135;28;13518;-74
2023/01/30 03:05:40;;;;;;;;;26.40;23.80;;;;;;;;5046056;28;13527;-74
2023/01/30 03:08:05;;;;;;;;;27.20;26.00;;;;;;;;5046000;28;14257;-74
2023/01/30 03:10:42;;;;;;;;;32.33;23.67;;;;;;;;5046051;28;13522;-74
2023/01/30 03:13:15;;;;;;;;;25.80;25.80;;;;;;;;5045729;28;13711;-74
2023/01/30 03:15:45;;;;;;;;;20.75;20.75;;;;;;;;5045700;28;13648;-73
2023/01/30 03:18:10;;;;;;;;;23.75;21.75;;;;;;;;5044363;28;13363;-74
2023/01/30 03:20:36;;;;;;;;;20.00;19.33;;;;;;;;5045626;28;13502;-73
2023/01/30 03:23:02;;;;;;;;;22.60;22.60;;;;;;;;5045574;28;13477;-74
2023/01/30 03:25:27;;;;;;;;;23.67;23.67;;;;;;;;5045660;28;14352;-74
2023/01/30 03:27:53;;;;;;;;;27.50;24.50;;;;;;;;5043105;28;13598;-74
2023/01/30 03:30:18;;;;;;;;;30.25;28.75;;;;;;;;5045634;28;13576;-74
2023/01/30 03:32:44;;;;;;;;;28.50;24.00;;;;;;;;5045607;28;13416;-75
2023/01/30 03:35:09;;;;;;;;;28.50;23.25;;;;;;;;5045652;28;13543;-74
2023/01/30 03:37:34;;;;;;;;;26.33;21.67;;;;;;;;5046006;28;13511;-74
2023/01/30 03:40:00;;;;;;;;;23.00;20.00;;;;;;;;5045672;28;13598;-74
2023/01/30 03:42:26;;;;;;;;;28.75;27.25;;;;;;;;5045595;28;13533;-74
2023/01/30 03:44:51;;;;;;;;;25.00;21.67;;;;;;;;5045606;28;13518;-75
2023/01/30 03:47:16;;;;;;;;;31.50;27.50;;;;;;;;5046063;28;13489;-75
2023/01/30 03:49:41;;;;;;;;;31.33;22.00;;;;;;;;5045720;28;13464;-75
2023/01/30 03:52:07;;;;;;;;;23.33;22.00;;;;;;;;5045723;28;14320;-75
2023/01/30 03:54:32;;;;;;;;;23.50;22.25;;;;;;;;5045915;28;13673;-75
2023/01/30 03:56:57;;;;;;;;;22.67;22.67;;;;;;;;5048367;28;13492;-75
2023/01/30 03:59:22;;;;;;;;;25.75;22.75;;;;;;;;5049612;28;13510;-74
2023/01/30 04:01:48;;;;;;;;;28.50;23.25;;;;;;;;5049695;28;13508;-74
2023/01/30 04:04:13;;;;;;;;;24.75;20.25;;;;;;;;5048068;28;13560;-74
2023/01/30 04:06:38;;;;;;;;;20.00;19.33;;;;;;;;5049491;28;14590;-74
2023/01/30 04:09:03;;;;;;;;;22.00;21.33;;;;;;;;5049433;28;13532;-74
2023/01/30 04:11:29;;;;;;;;;21.50;19.50;;;;;;;;5049921;28;13491;-74
2023/01/30 04:13:54;;;;;;;;;20.00;19.00;;;;;;;;5049228;28;13502;-74
2023/01/30 04:16:19;;;;;;;;;24.00;20.00;;;;;;;;5049325;28;13501;-74
2023/01/30 04:18:44;;;;;;;;;28.25;26.50;;;;;;;;5049401;28;13758;-74
2023/01/30 04:21:10;;;;;;;;;29.50;23.00;;;;;;;;5049366;28;14311;-74
2023/01/30 04:23:35;;;;;;;;;24.00;19.00;;;;;;;;5049202;28;13509;-75
2023/01/30 04:26:01;;;;;;;;;26.00;26.00;;;;;;;;5049261;28;13509;-74
2023/01/30 04:28:26;;;;;;;;;25.00;22.00;;;;;;;;5048999;28;13485;-74
2023/01/30 04:30:52;;;;;;;;;25.00;24.00;;;;;;;;5049406;28;13559;-75
2023/01/30 04:33:17;;;;;;;;;22.75;20.00;;;;;;;;5049168;28;13642;-74
2023/01/30 04:35:50;;;;;;;;;30.50;22.25;;;;;;;;5049536;28;13823;-74
2023/01/30 04:38:15;;;;;;;;;22.75;19.75;;;;;;;;5049224;28;13629;-74
2023/01/30 04:40:40;;;;;;;;;24.75;21.75;;;;;;;;5049153;28;13605;-74
2023/01/30 04:43:06;;;;;;;;;24.00;19.00;;;;;;;;5048606;28;13482;-73
2023/01/30 04:45:31;;;;;;;;;25.00;22.00;;;;;;;;5048976;28;13859;-73
2023/01/30 04:47:56;;;;;;;;;25.75;22.25;;;;;;;;5048773;28;13540;-73
2023/01/30 04:50:21;;;;;;;;;27.00;22.00;;;;;;;;5048698;28;13515;-74
2023/01/30 04:52:47;;;;;;;;;23.25;20.25;;;;;;;;5047177;28;13592;-74
2023/01/30 04:55:12;;;;;;;;;25.50;23.00;;;;;;;;5048518;28;13531;-73
2023/01/30 04:57:37;;;;;;;;;23.50;19.25;;;;;;;;5048623;28;13486;-73
2023/01/30 05:00:03;;;;;;;;;23.00;22.00;;;;;;;;5048211;28;13485;-74
2023/01/30 05:02:28;;;;;;;;;26.00;20.00;;;;;;;;5047083;28;13489;-75
2023/01/30 05:04:53;;;;;;;;;28.75;24.50;;;;;;;;5048390;28;14149;-73
2023/01/30 05:07:18;;;;;;;;;25.00;23.00;;;;;;;;5046443;28;13511;-74
2023/01/30 05:09:44;;;;;;;;;30.33;25.67;;;;;;;;5048122;28;14398;-74
2023/01/30 05:12:09;;;;;;;;;27.00;21.33;;;;;;;;5053464;28;13485;-75
2023/01/30 05:14:34;;;;;;;;;30.75;29.50;;;;;;;;5052127;28;13512;-76
2023/01/30 05:16:59;;;;;;;;;22.50;22.50;;;;;;;;5067897;28;13509;-75
2023/01/30 05:19:25;;;;;;;;;31.25;27.25;;;;;;;;5061959;28;14283;-72
2023/01/30 05:21:50;;;;;;;;;35.67;28.00;;;;;;;;5068058;28;13452;-71
2023/01/30 05:24:15;;;;;;;;;30.00;26.25;;;;;;;;5068062;28;13324;-71
2023/01/30 05:26:41;;;;;;;;;30.00;29.75;;;;;;;;5056102;28;13530;-72
2023/01/30 05:29:06;;;;;;;;;30.25;26.25;;;;;;;;5047991;28;13767;-70
2023/01/30 05:31:34;;;;;;;;;30.00;28.00;;;;;;;;5048074;28;13519;-72
2023/01/30 05:33:59;;;;;;;;;34.20;26.80;;;;;;;;5047760;28;14314;-72
2023/01/30 05:36:24;;;;;;;;;32.75;31.00;;;;;;;;5048363;28;13485;-73
2023/01/30 05:38:50;;;;;;;;;24.75;24.75;;;;;;;;5063288;28;14317;-74
2023/01/30 05:41:16;;;;;;;;;33.33;30.67;;;;;;;;5046662;28;13514;-72
2023/01/30 05:43:41;;;;;;;;;23.80;21.80;;;;;;;;5047344;28;13502;-71
2023/01/30 05:46:09;;;;;;;;;30.00;28.00;;;;;;;;5046158;28;13555;-72
2023/01/30 05:48:34;;;;;;;;;33.25;30.25;;;;;;;;5047471;28;13548;-71
2023/01/30 05:50:59;;;;;;;;;30.00;27.67;;;;;;;;5047467;28;13507;-73
2023/01/30 05:53:29;;;;;;;;;32.00;27.75;;;;;;;;5047527;28;13621;-72
2023/01/30 05:55:58;;;;;;;;;36.20;30.40;;;;;;;;5047330;28;13594;-72
2023/01/30 05:58:24;;;;;;;;;32.20;27.00;;;;;;;;5047187;28;14305;-72
2023/01/30 06:00:49;;;;;;;;;30.50;29.00;;;;;;;;5047330;28;13517;-72
2023/01/30 06:03:14;;;;;;;;;33.75;31.00;;;;;;;;5047238;28;13531;-70
2023/01/30 06:05:40;;;;;;;;;30.67;29.00;;;;;;;;5047154;28;13612;-71
2023/01/30 06:08:06;;;;;;;;;33.50;29.00;;;;;;;;5047214;28;13488;-69
2023/01/30 06:10:32;;;;;;;;;28.00;28.00;;;;;;;;5054043;28;13531;-71
2023/01/30 06:12:58;;;;;;;;;27.80;25.40;;;;;;;;5065844;28;13557;-73
2023/01/30 06:15:23;;;;;;;;;35.00;30.25;;;;;;;;5053828;28;13641;-72
2023/01/30 06:17:48;;;;;;;;;34.67;29.33;;;;;;;;5037999;28;13689;-73
2023/01/30 06:20:14;;;;;;;;;34.75;30.00;;;;;;;;5026545;28;13771;-73
2023/01/30 06:22:39;;;;;;;;;34.25;31.00;;;;;;;;5027070;28;13591;-72
2023/01/30 06:25:04;;;;;;;;;33.25;32.75;;;;;;;;5033530;28;13628;-73
2023/01/30 06:27:30;;;;;;;;;27.75;27.75;;;;;;;;5061035;28;13579;-72
2023/01/30 06:29:55;;;;;;;;;34.00;34.00;;;;;;;;5045694;28;13508;-80
2023/01/30 06:32:20;;;;;;;;;41.25;33.25;;;;;;;;5044708;28;13534;-76
2023/01/30 06:34:45;;;;;;;;;37.00;34.75;;;;;;;;5044733;28;13641;-78
2023/01/30 06:37:11;;;;;;;;;36.67;31.67;;;;;;;;5043388;28;13540;-72
2023/01/30 06:39:36;;;;;;;;;33.00;31.00;;;;;;;;5045144;28;14016;-74
2023/01/30 06:42:01;;;;;;;;;34.50;30.50;;;;;;;;5040288;28;13577;-71
2023/01/30 06:44:27;;;;;;;;;32.75;32.25;;;;;;;;5023880;28;13588;-76
2023/01/30 06:46:52;;;;;;;;;33.67;32.67;;;;;;;;5025839;28;14259;-74
2023/01/30 06:49:17;;;;;;;;;35.00;31.67;;;;;;;;5025832;28;13676;-72
2023/01/30 06:51:43;;;;;;;;;37.00;29.75;;;;;;;;5024245;28;13569;-71
2023/01/30 06:54:08;;;;;;;;;35.75;27.50;;;;;;;;5025466;28;13510;-74
2023/01/30 06:56:33;;;;;;;;;31.50;30.50;;;;;;;;5033375;28;15760;-72
2023/01/30 06:58:58;;;;;;;;;32.00;27.50;;;;;;;;5037143;28;13551;-77
2023/01/30 07:01:24;;;;;;;;;26.50;25.00;;;;;;;;5036410;28;13656;-72
2023/01/30 07:03:49;;;;;;;;;35.00;31.00;;;;;;;;5044973;28;13559;-72
2023/01/30 07:06:14;;;;;;;;;31.75;30.50;;;;;;;;5043585;28;13767;-71
2023/01/30 07:08:39;;;;;;;;;41.00;32.25;;;;;;;;5043270;28;13535;-72
2023/01/30 07:11:05;;;;;;;;;42.50;34.25;;;;;;;;5043148;28;13554;-72
2023/01/30 07:13:30;;;;;;;;;32.67;28.33;;;;;;;;5042993;28;13534;-74
2023/01/30 07:15:55;;;;;;;;;28.00;27.00;;;;;;;;5042954;28;13558;-73
2023/01/30 07:18:21;;;;;;;;;31.75;29.25;;;;;;;;5043119;28;14371;-72
2023/01/30 07:20:47;;;;;;;;;34.33;30.00;;;;;;;;5043473;28;13501;-72
2023/01/30 07:23:12;;;;;;;;;32.00;30.00;;;;;;;;5044789;28;13507;-72
2023/01/30 07:25:37;;;;;;;;;36.33;32.33;;;;;;;;5045195;28;13466;-72
2023/01/30 07:28:03;;;;;;;;;40.50;32.25;;;;;;;;5044853;28;13601;-72
2023/01/30 07:30:29;;;;;;;;;36.25;30.00;;;;;;;;5044766;28;13539;-72
2023/01/30 07:32:56;;;;;;;;;41.25;34.75;;;;;;;;5045076;28;13507;-73
2023/01/30 07:35:22;;;;;;;;;36.25;33.00;;;;;;;;5045309;28;13630;-73
2023/01/30 07:37:48;;;;;;;;;30.00;28.50;;;;;;;;5043757;28;13553;-73
2023/01/30 07:40:14;;;;;;;;;33.50;30.00;;;;;;;;5043498;28;13571;-74
2023/01/30 07:42:39;;;;;;;;;32.25;28.00;;;;;;;;5043517;28;13624;-74
2023/01/30 07:45:05;;;;;;;;;29.67;27.67;;;;;;;;5045392;28;13536;-74
2023/01/30 07:47:30;;;;;;;;;39.80;34.80;;;;;;;;5045104;28;13523;-74
2023/01/30 07:49:55;;;;;;;;;37.33;32.00;;;;;;;;5045050;28;13675;-74
2023/01/30 07:52:20;;;;;;;;;29.67;26.33;;;;;;;;5045319;28;13588;-73
2023/01/30 07:54:46;;;;;;;;;31.67;25.33;;;;;;;;5045191;28;13756;-73
2023/01/30 07:57:11;;;;;;;;;;;;;;;;;;5051131;28;8799;-75
2023/01/30 07:59:36;;;;;;;;;;;;;;;;;;5050543;28;7524;-74
2023/01/30 08:02:01;;;;;;;;;;;;;;;;;;5050392;28;7520;-75
2023/01/30 08:04:26;;;;;;;;;;;;;;;;;;5050506;28;7525;-74
2023/01/30 08:06:52;;;;;;;;;;;;;;;;;;5050404;28;7524;-74
2023/01/30 08:09:17;;;;;;;;;;;;;;;;;;5051298;28;8814;-74
2023/01/30 08:11:42;;;;;;;;;59.25;46.75;;;;;;;;5048283;28;8806;-74
2023/01/30 08:14:07;;;;;;;;;46.25;38.00;;;;;;;;5048432;28;8795;-74
2023/01/30 08:16:33;;;;;;;;;27.25;24.00;;;;;;;;5047885;28;9430;-74
2023/01/30 08:18:58;;;;;;;;;;;;;;;;;;5051203;28;8807;-74
2023/01/30 08:21:23;;;;;;;;;;;;;;;;;;5050037;28;7521;-74
2023/01/30 08:23:48;;;;;;;;;27.00;25.00;;;;;;;;5048234;28;8802;-74
2023/01/30 08:26:14;;;;;;;;;30.33;26.33;;;;;;;;5048274;28;8806;-74
2023/01/30 08:28:39;;;;;;;;;30.00;25.67;;;;;;;;5048127;28;8829;-74
2023/01/30 08:31:08;;;;;;;;;30.67;28.67;;;;;;;;5048163;28;8799;-73
2023/01/30 08:33:34;;;;;;;;;29.33;23.67;;;;;;;;5047879;28;8885;-76
2023/01/30 08:35:59;;;;;;;;;25.67;22.67;;;;;;;;5048088;28;8835;-77
2023/01/30 08:38:24;;;;;;;;;28.33;20.67;;;;;;;;5048325;28;8807;-74
2023/01/30 08:40:50;;;;;;;;;32.00;26.00;;;;;;;;5048493;28;8836;-74
2023/01/30 08:43:15;;;;;;;;;31.67;27.67;;;;;;;;5050874;28;8803;-75
2023/01/30 08:45:40;;;;;;;;;28.00;22.67;;;;;;;;5052108;28;8818;-75
2023/01/30 08:48:06;;;;;;;;;29.00;26.00;;;;;;;;5052346;28;8825;-77
2023/01/30 08:50:32;;;;;;;;;29.33;27.33;;;;;;;;5052213;28;8891;-75
2023/01/30 08:53:01;;;;;;;;;30.33;25.00;;;;;;;;5051780;28;8847;-75
2023/01/30 08:55:27;;;;;;;;;26.33;22.00;;;;;;;;5051492;28;8880;-74
2023/01/30 08:57:54;;;;;;;;;32.00;26.67;;;;;;;;5045598;28;8842;-72
2023/01/30 09:00:20;;;;;;;;;34.33;28.33;;;;;;;;5036070;28;8798;-73
2023/01/30 09:02:45;;;;;;;;;31.00;27.25;;;;;;;;5030242;28;8851;-72
2023/01/30 09:05:10;;;;;;;;;34.50;32.00;;;;;;;;5031890;28;9644;-73
2023/01/30 09:07:36;;;;;;;;;33.50;30.75;;;;;;;;5031672;28;8883;-72
2023/01/30 09:10:01;;;;;;;;;43.50;34.00;;;;;;;;5031189;28;8931;-73
2023/01/30 09:12:26;;;;;;;;;43.25;36.25;;;;;;;;5031432;28;8908;-73
2023/01/30 09:14:52;;;;;;;;;41.75;36.50;;;;;;;;5031455;28;8944;-73
2023/01/30 09:17:17;;;;;;;;;23.75;14.25;;;;;;;;5031665;28;8797;-73
2023/01/30 09:19:43;;;;;;;;;41.00;34.25;;;;;;;;5031636;28;8806;-73
2023/01/30 09:22:08;;;;;;;;;37.00;29.50;;;;;;;;5031533;28;8879;-73
2023/01/30 09:24:33;;;;;;;;;27.50;24.50;;;;;;;;5031713;28;8900;-73
2023/01/30 09:26:58;;;;;;;;;28.00;22.00;;;;;;;;5036889;28;8818;-73
2023/01/30 09:29:24;;;;;;;;;39.50;36.00;;;;;;;;5050777;28;8783;-73
2023/01/30 09:31:50;;;;;;;;;38.50;33.50;;;;;;;;5051246;28;8830;-73
2023/01/30 09:34:15;;;;;;;;;36.33;28.67;;;;;;;;5050979;28;8946;-73
2023/01/30 09:36:40;;;;;;;;;34.00;29.67;;;;;;;;5051547;28;8787;-72
2023/01/30 09:39:06;;;;;;;;;31.67;28.67;;;;;;;;5051170;28;8821;-73
2023/01/30 09:41:31;;;;;;;;;37.33;32.67;;;;;;;;5050925;28;8779;-73
2023/01/30 09:43:56;;;;;;;;;39.67;30.00;;;;;;;;5050701;28;9595;-73
2023/01/30 09:46:24;;;;;;;;;37.33;30.33;;;;;;;;5050902;28;9513;-74
2023/01/30 09:49:10;;;;;;;;;33.50;28.75;;;;;;;;5050520;28;8791;-73
2023/01/30 09:51:38;;;;;;;;;34.67;28.33;;;;;;;;5056427;28;8849;-73
2023/01/30 09:54:20;;;;;;;;;31.25;30.75;;;;;;;;5050925;28;8823;-73
2023/01/30 09:56:48;;;;;;;;;37.25;31.50;;;;;;;;5049517;28;8864;-74
2023/01/30 09:59:24;;;;;;;;;40.50;37.00;;;;;;;;5050797;28;8833;-73
2023/01/30 10:02:08;;;;;;;;;32.33;29.00;;;;;;;;5050647;28;8787;-72
2023/01/30 10:04:44;;;;;;;;;36.33;32.00;;;;;;;;5049281;28;8857;-72
2023/01/30 10:07:09;;;;;;;;;40.67;34.33;;;;;;;;5050259;28;8798;-73
2023/01/30 10:09:37;;;;;;;;;27.00;24.00;;;;;;;;5050629;28;8868;-73
2023/01/30 10:12:03;;;;;;;;;42.33;38.67;;;;;;;;5050437;28;8794;-73
2023/01/30 10:14:31;;;;;;;;;38.67;32.67;;;;;;;;5050447;28;8843;-74
2023/01/30 10:17:06;;;;;;;;;39.00;32.33;;;;;;;;5050429;28;8957;-73
2023/01/30 10:19:34;;;;;;;;;42.33;30.67;;;;;;;;5050328;28;8847;-73
2023/01/30 10:22:07;;;;;;;;;32.00;24.67;;;;;;;;5050263;28;8791;-73
2023/01/30 10:24:32;;;;;;;;;31.00;30.33;;;;;;;;5049953;28;8806;-73
2023/01/30 11:14:55;;;;;;;;;51.00;40.00;;;;;;;;5165660;27;13372;-74
2023/01/30 11:17:26;;;;;;;;;39.00;38.67;;;;;;;;5129392;27;8809;-74
2023/01/30 11:19:56;;;;;;;;;44.33;40.00;;;;;;;;5147924;27;8888;-74
2023/01/30 11:22:24;;;;;;;;;36.00;33.00;;;;;;;;5148110;27;8872;-74
2023/01/30 11:24:58;;;;;;;;;42.67;38.67;;;;;;;;5147915;27;11600;-73
2023/01/30 11:27:26;;;;;;;;;42.00;37.50;;;;;;;;5147874;27;11555;-74
2023/01/30 11:30:01;;;;;;;;;30.25;27.00;;;;;;;;5148015;27;11455;-74
2023/01/30 11:32:28;;;;;;;;;42.00;38.00;;;;;;;;5147422;27;11452;-73
2023/01/30 11:35:05;;;;;;;;;42.75;37.00;;;;;;;;5147773;27;11477;-74
2023/01/30 11:37:34;;;;;;;;;47.25;40.00;;;;;;;;5118645;22;11576;-67
2023/01/30 11:40:06;;;;;;;;;42.75;39.25;;;;;;;;5086068;28;11505;-66
2023/01/30 11:42:31;;;;;;;;;43.50;39.50;;;;;;;;5086226;28;11480;-67
2023/01/30 11:45:00;;;;;;;;;36.25;32.75;;;;;;;;5085931;28;11510;-67
2023/01/30 11:47:28;;;;;;;;;47.75;40.00;;;;;;;;5086235;28;8816;-66
2023/01/30 11:49:55;;;;;;;;;40.50;34.50;;;;;;;;5086057;28;11494;-66
2023/01/30 11:52:27;;;;;;;;;41.75;38.50;;;;;;;;5085818;28;11527;-66
2023/01/30 11:54:53;;;;;;;;;39.50;38.50;;;;;;;;5085342;28;11500;-66
2023/01/30 11:57:19;;;;;;;;;41.75;38.00;;;;;;;;5085572;28;11462;-65
2023/01/30 11:59:58;;;;;;;;;41.25;33.75;;;;;;;;5085953;28;8782;-69
2023/01/30 12:02:25;;;;;;;;;47.67;39.00;;;;;;;;5085852;28;11545;-67
2023/01/30 12:04:53;;;;;;;;;47.33;36.67;;;;;;;;5085631;28;11530;-65
2023/01/30 12:07:20;;;;;;;;;49.33;39.00;;;;;;;;5085796;28;11455;-65
2023/01/30 12:09:49;;;;;;;;;38.00;30.00;;;;;;;;5085695;28;8912;-68
2023/01/30 12:12:28;;;;;;;;;39.00;34.00;;;;;;;;5085127;28;11424;-66
2023/01/30 12:14:59;;;;;;;;;46.67;38.33;;;;;;;;5085493;28;8796;-66
2023/01/30 12:17:38;;;;;;;;;44.00;37.00;;;;;;;;5082786;28;8843;-66
2023/01/30 12:20:13;;;;;;;;;46.33;38.33;;;;;;;;5082429;28;8865;-66
2023/01/30 12:22:46;;;;;;;;;39.33;33.67;;;;;;;;5090019;28;8809;-68
2023/01/30 12:25:11;;;;;;;;;37.00;33.00;;;;;;;;5063566;28;8808;-66
2023/01/30 12:27:55;;;;;;;;;36.67;30.33;;;;;;;;5080926;28;8947;-66
2023/01/30 12:30:27;;;;;;;;;43.67;38.67;;;;;;;;5079235;28;8808;-66
2023/01/30 12:32:57;;;;;;;;;48.33;40.67;;;;;;;;5076880;28;8840;-67
2023/01/30 12:35:28;;;;;;;;;42.67;36.00;;;;;;;;5079938;28;8932;-66
2023/01/30 12:38:19;;;;;;;;;35.00;32.33;;;;;;;;5077181;28;8800;-66
2023/01/30 12:40:57;;;;;;;;;37.00;35.33;;;;;;;;5076119;28;8812;-67
2023/01/30 12:43:46;;;;;;;;;44.00;39.33;;;;;;;;5079617;28;8812;-67
2023/01/30 12:46:30;;;;;;;;;34.00;30.33;;;;;;;;5042840;28;8814;-66
2023/01/30 12:49:03;;;;;;;;;45.00;37.33;;;;;;;;5077468;28;8843;-66
2023/01/30 12:51:39;;;;;;;;;42.00;36.67;;;;;;;;5078731;28;8805;-66
2023/01/30 12:54:11;;;;;;;;;38.67;33.00;;;;;;;;5079361;28;8977;-69
2023/01/30 12:56:46;;;;;;;;;39.67;31.33;;;;;;;;5077503;28;9644;-66
2023/01/30 12:59:20;;;;;;;;;36.33;34.33;;;;;;;;5078988;28;8778;-66
2023/01/30 13:02:00;;;;;;;;;36.67;33.33;;;;;;;;5078983;28;8821;-67
2023/01/30 13:04:28;;;;;;;;;38.33;33.33;;;;;;;;5079864;28;8914;-66
2023/01/30 13:06:53;;;;;;;;;41.67;38.67;;;;;;;;5076259;28;8828;-67
2023/01/30 13:09:21;;;;;;;;;43.33;37.00;;;;;;;;5079730;28;8798;-67
2023/01/30 13:11:53;;;;;;;;;39.00;32.33;;;;;;;;5080612;28;8838;-67
2023/01/30 13:14:26;;;;;;;;;46.33;39.00;;;;;;;;5059141;28;8894;-66
2023/01/30 13:16:54;;;;;;;;;35.33;30.33;;;;;;;;5078649;28;8800;-67
2023/01/30 13:19:33;;;;;;;;;49.33;41.33;;;;;;;;5079631;28;8786;-67
2023/01/30 13:22:17;;;;;;;;;35.00;30.67;;;;;;;;5077627;28;9546;-66
2023/01/30 13:24:46;;;;;;;;;39.33;34.67;;;;;;;;5073388;28;9492;-67
2023/01/30 13:27:16;;;;;;;;;41.00;32.00;;;;;;;;5079450;28;8792;-67
2023/01/30 13:29:42;;;;;;;;;40.00;37.33;;;;;;;;5079314;28;8805;-67
2023/01/30 13:32:14;;;;;;;;;48.33;39.33;;;;;;;;5080202;28;8798;-66
2023/01/30 13:34:43;;;;;;;;;37.33;34.67;;;;;;;;5079180;28;8805;-66
2023/01/30 13:37:15;;;;;;;;;28.33;25.00;;;;;;;;5076815;28;8875;-69
2023/01/30 13:39:47;;;;;;;;;33.00;31.00;;;;;;;;5079209;28;8793;-66
2023/01/30 13:42:20;;;;;;;;;39.67;31.33;;;;;;;;5075219;28;8808;-69
2023/01/30 13:44:47;;;;;;;;;35.33;30.33;;;;;;;;5074801;28;8812;-69
2023/01/30 13:47:31;;;;;;;;;38.00;30.67;;;;;;;;5070336;28;8804;-67
2023/01/30 13:49:59;;;;;;;;;37.33;31.67;;;;;;;;5069693;28;9515;-67
2023/01/30 13:52:57;;;;;;;;;32.00;26.67;;;;;;;;5069574;28;8899;-65
2023/01/30 13:55:33;;;;;;;;;30.33;25.00;;;;;;;;5018393;28;8823;-67
2023/01/30 13:57:59;;;;;;;;;32.00;28.67;;;;;;;;5049825;28;8808;-67
2023/01/30 14:00:27;;;;;;;;;34.67;30.33;;;;;;;;5069569;28;8885;-66
2023/01/30 14:03:07;;;;;;;;;31.67;26.00;;;;;;;;5066687;28;8919;-66
2023/01/30 14:06:05;;;;;;;;;34.67;28.67;;;;;;;;5048856;28;8939;-66
2023/01/30 14:08:30;;;;;;;;;23.00;22.33;;;;;;;;5024508;28;8797;-66
2023/01/30 14:10:56;;;;;;;;;31.00;27.00;;;;;;;;5069397;28;8818;-67
2023/01/30 14:13:22;;;;;;;;;24.00;20.33;;;;;;;;5069164;28;8820;-66
2023/01/30 21:48:39;;;;;;;;;23.33;18.00;;;;;;;;5101568;27;14112;-66
2023/01/30 21:51:11;;;;;;;;;24.33;16.33;;;;;;;;5095768;28;8836;-66
2023/01/30 21:53:36;;;;;;;;;18.00;15.33;;;;;;;;5095989;28;8884;-65
2023/01/30 21:56:02;;;;;;;;;15.67;11.33;;;;;;;;5094244;28;8822;-67
2023/01/30 21:58:30;;;;;;;;;21.67;21.67;;;;;;;;5095428;28;8824;-65
2023/01/30 22:01:01;;;;;;;;;19.67;16.67;;;;;;;;5094734;28;8810;-65
2023/01/30 22:03:26;;;;;;;;;33.67;31.33;;;;;;;;5093595;28;11558;-66
2023/01/30 22:05:54;;;;;;;;;50.67;41.00;;;;;;;;5094208;28;9515;-65
2023/01/30 22:08:20;;;;;;;;;18.33;16.00;;;;;;;;5090977;28;8828;-66
2023/01/30 22:10:45;;;;;;;;;15.00;11.67;;;;;;;;5091192;28;11492;-66
2023/01/30 22:13:18;;;;;;;;;16.00;13.33;;;;;;;;5096629;28;8787;-68
2023/01/30 22:15:46;;;;;;;;;17.67;13.00;;;;;;;;5090207;28;8818;-67
2023/01/30 22:18:11;;;;;;;;;19.33;13.67;;;;;;;;5094392;28;11592;-66
2023/01/30 22:20:37;;;;;;;;;14.00;10.50;;;;;;;;5094162;28;11515;-66
2023/01/30 22:23:02;;;;;;;;;10.25;7.00;;;;;;;;5093797;28;8827;-66
2023/01/30 22:25:27;;;;;;;;;18.00;10.75;;;;;;;;5093571;28;8926;-67
2023/01/30 22:27:53;;;;;;;;;13.25;10.25;;;;;;;;5093052;28;9001;-65
2023/01/30 22:30:19;;;;;;;;;17.67;10.00;;;;;;;;5094315;28;8840;-66
2023/01/30 22:32:44;;;;;;;;;14.00;8.00;;;;;;;;5093751;28;11570;-67
2023/01/30 22:35:09;;;;;;;;;14.00;10.50;;;;;;;;5094523;28;8818;-67
2023/01/30 22:37:34;;;;;;;;;9.75;8.50;;;;;;;;5095297;28;8851;-66
2023/01/30 22:40:00;;;;;;;;;10.00;10.00;;;;;;;;5093360;28;8814;-66
2023/01/30 22:42:25;;;;;;;;;12.00;9.00;;;;;;;;5094949;28;9580;-66
2023/01/30 22:44:50;;;;;;;;;11.75;8.75;;;;;;;;5095831;28;8915;-66
2023/01/30 22:47:16;;;;;;;;;13.25;10.75;;;;;;;;5095299;28;8862;-66
2023/01/30 22:49:41;;;;;;;;;13.75;10.00;;;;;;;;5094231;28;8811;-66
2023/01/30 22:52:06;;;;;;;;;11.75;10.00;;;;;;;;5093923;28;9309;-65
2023/01/30 22:54:32;;;;;;;;;22.00;16.00;;;;;;;;5092709;28;8904;-66
2023/01/30 22:56:57;;;;;;;;;21.33;16.00;;;;;;;;5094239;28;8856;-67